sensor_id;sensor_type;location;lat;lon;timestamp;P1;durP1;ratioP1;P2;durP2;ratioP2
1837;SDS011;918;50.796;6.772;2023-03-30T00:00:00;2.67;;;2.47;;
1837;SDS011;918;50.796;6.772;2023-03-30T00:02:32;2.37;;;1.77;;
1837;SDS011;918;50.796;6.772;2023-03-30T00:05:02;3.00;;;2.10;;
1837;SDS011;918;50.796;6.772;2023-03-30T00:07:29;2.60;;;1.90;;
1837;SDS011;918;50.796;6.772;2023-03-30T00:09:54;4.07;;;2.77;;
1837;SDS011;918;50.796;6.772;2023-03-30T00:12:20;2.87;;;2.00;;
1837;SDS011;918;50.796;6.772;2023-03-30T00:14:46;2.57;;;2.03;;
1837;SDS011;918;50.796;6.772;2023-03-30T00:17:11;3.13;;;1.90;;
1837;SDS011;918;50.796;6.772;2023-03-30T00:19:36;2.57;;;2.10;;
1837;SDS011;918;50.796;6.772;2023-03-30T00:22:03;4.73;;;1.90;;
1837;SDS011;918;50.796;6.772;2023-03-30T00:24:29;3.60;;;2.63;;
1837;SDS011;918;50.796;6.772;2023-03-30T00:26:55;5.97;;;2.40;;
1837;SDS011;918;50.796;6.772;2023-03-30T00:29:20;4.60;;;2.23;;
1837;SDS011;918;50.796;6.772;2023-03-30T00:31:45;4.97;;;2.00;;
1837;SDS011;918;50.796;6.772;2023-03-30T00:34:10;2.40;;;1.90;;
1837;SDS011;918;50.796;6.772;2023-03-30T00:36:36;5.73;;;2.60;;
1837;SDS011;918;50.796;6.772;2023-03-30T00:39:02;2.50;;;1.73;;
1837;SDS011;918;50.796;6.772;2023-03-30T00:41:30;4.30;;;2.10;;
1837;SDS011;918;50.796;6.772;2023-03-30T00:44:00;4.50;;;2.50;;
1837;SDS011;918;50.796;6.772;2023-03-30T00:46:27;4.30;;;2.33;;
1837;SDS011;918;50.796;6.772;2023-03-30T00:48:55;4.17;;;2.50;;
1837;SDS011;918;50.796;6.772;2023-03-30T00:51:22;3.67;;;3.37;;
1837;SDS011;918;50.796;6.772;2023-03-30T00:53:49;2.87;;;2.30;;
1837;SDS011;918;50.796;6.772;2023-03-30T00:56:16;3.70;;;2.23;;
1837;SDS011;918;50.796;6.772;2023-03-30T00:58:43;2.90;;;2.10;;
1837;SDS011;918;50.796;6.772;2023-03-30T01:01:09;3.10;;;1.93;;
1837;SDS011;918;50.796;6.772;2023-03-30T01:03:39;2.83;;;2.20;;
1837;SDS011;918;50.796;6.772;2023-03-30T01:06:10;3.80;;;2.20;;
1837;SDS011;918;50.796;6.772;2023-03-30T01:08:36;3.03;;;2.20;;
1837;SDS011;918;50.796;6.772;2023-03-30T01:11:04;7.57;;;2.20;;
1837;SDS011;918;50.796;6.772;2023-03-30T01:13:34;5.73;;;4.50;;
1837;SDS011;918;50.796;6.772;2023-03-30T01:22:08;7.60;;;2.60;;
1837;SDS011;918;50.796;6.772;2023-03-30T01:35:26;3.50;;;2.10;;
1837;SDS011;918;50.796;6.772;2023-03-30T01:40:28;2.40;;;2.13;;
1837;SDS011;918;50.796;6.772;2023-03-30T01:45:44;3.10;;;2.37;;
1837;SDS011;918;50.796;6.772;2023-03-30T01:48:31;9.40;;;2.90;;
1837;SDS011;918;50.796;6.772;2023-03-30T01:51:09;5.30;;;2.50;;
1837;SDS011;918;50.796;6.772;2023-03-30T01:53:53;3.73;;;2.10;;
1837;SDS011;918;50.796;6.772;2023-03-30T01:56:28;4.50;;;2.30;;
1837;SDS011;918;50.796;6.772;2023-03-30T01:59:01;2.53;;;1.93;;
1837;SDS011;918;50.796;6.772;2023-03-30T02:01:31;3.40;;;2.20;;
1837;SDS011;918;50.796;6.772;2023-03-30T02:03:58;5.77;;;3.00;;
1837;SDS011;918;50.796;6.772;2023-03-30T02:06:26;4.50;;;1.70;;
1837;SDS011;918;50.796;6.772;2023-03-30T02:08:53;5.23;;;2.00;;
1837;SDS011;918;50.796;6.772;2023-03-30T02:11:23;4.90;;;2.00;;
1837;SDS011;918;50.796;6.772;2023-03-30T02:13:50;8.50;;;2.40;;
1837;SDS011;918;50.796;6.772;2023-03-30T02:16:19;5.77;;;2.40;;
1837;SDS011;918;50.796;6.772;2023-03-30T02:18:47;5.47;;;2.20;;
1837;SDS011;918;50.796;6.772;2023-03-30T02:21:12;4.37;;;2.30;;
1837;SDS011;918;50.796;6.772;2023-03-30T02:23:38;5.93;;;2.60;;
1837;SDS011;918;50.796;6.772;2023-03-30T02:26:06;3.67;;;1.80;;
1837;SDS011;918;50.796;6.772;2023-03-30T02:28:32;3.03;;;2.27;;
1837;SDS011;918;50.796;6.772;2023-03-30T02:30:58;3.47;;;2.27;;
1837;SDS011;918;50.796;6.772;2023-03-30T02:33:27;2.83;;;2.60;;
1837;SDS011;918;50.796;6.772;2023-03-30T02:36:00;5.57;;;2.40;;
1837;SDS011;918;50.796;6.772;2023-03-30T02:41:17;2.73;;;2.10;;
1837;SDS011;918;50.796;6.772;2023-03-30T02:44:15;5.30;;;2.60;;
1837;SDS011;918;50.796;6.772;2023-03-30T02:49:43;4.40;;;2.60;;
1837;SDS011;918;50.796;6.772;2023-03-30T02:54:58;4.80;;;3.07;;
1837;SDS011;918;50.796;6.772;2023-03-30T02:57:43;3.90;;;2.67;;
1837;SDS011;918;50.796;6.772;2023-03-30T03:00:11;4.63;;;2.33;;
1837;SDS011;918;50.796;6.772;2023-03-30T03:02:42;4.70;;;2.93;;
1837;SDS011;918;50.796;6.772;2023-03-30T03:05:12;4.83;;;2.60;;
1837;SDS011;918;50.796;6.772;2023-03-30T03:07:38;5.03;;;2.63;;
1837;SDS011;918;50.796;6.772;2023-03-30T03:10:04;9.60;;;3.47;;
1837;SDS011;918;50.796;6.772;2023-03-30T03:12:30;4.40;;;2.83;;
1837;SDS011;918;50.796;6.772;2023-03-30T03:14:57;7.93;;;3.27;;
1837;SDS011;918;50.796;6.772;2023-03-30T03:17:25;6.27;;;3.03;;
1837;SDS011;918;50.796;6.772;2023-03-30T03:19:58;7.80;;;3.00;;
1837;SDS011;918;50.796;6.772;2023-03-30T03:22:23;4.37;;;2.77;;
1837;SDS011;918;50.796;6.772;2023-03-30T03:24:48;5.20;;;3.00;;
1837;SDS011;918;50.796;6.772;2023-03-30T03:27:14;4.50;;;2.33;;
1837;SDS011;918;50.796;6.772;2023-03-30T03:29:39;3.17;;;2.80;;
1837;SDS011;918;50.796;6.772;2023-03-30T03:32:04;6.80;;;3.00;;
1837;SDS011;918;50.796;6.772;2023-03-30T03:34:30;4.80;;;2.90;;
1837;SDS011;918;50.796;6.772;2023-03-30T03:36:56;4.20;;;2.80;;
1837;SDS011;918;50.796;6.772;2023-03-30T03:39:22;6.70;;;3.60;;
1837;SDS011;918;50.796;6.772;2023-03-30T03:41:47;5.83;;;3.17;;
1837;SDS011;918;50.796;6.772;2023-03-30T03:44:12;4.93;;;2.93;;
1837;SDS011;918;50.796;6.772;2023-03-30T03:46:38;4.23;;;2.83;;
1837;SDS011;918;50.796;6.772;2023-03-30T03:49:03;6.07;;;2.60;;
1837;SDS011;918;50.796;6.772;2023-03-30T03:51:29;5.10;;;3.27;;
1837;SDS011;918;50.796;6.772;2023-03-30T03:53:54;3.30;;;2.63;;
1837;SDS011;918;50.796;6.772;2023-03-30T03:56:19;4.10;;;3.00;;
1837;SDS011;918;50.796;6.772;2023-03-30T03:58:45;3.77;;;2.67;;
1837;SDS011;918;50.796;6.772;2023-03-30T04:01:10;6.83;;;3.40;;
1837;SDS011;918;50.796;6.772;2023-03-30T04:03:38;4.90;;;3.17;;
1837;SDS011;918;50.796;6.772;2023-03-30T04:06:04;7.17;;;3.37;;
1837;SDS011;918;50.796;6.772;2023-03-30T04:08:29;5.50;;;3.00;;
1837;SDS011;918;50.796;6.772;2023-03-30T04:10:54;5.17;;;3.20;;
1837;SDS011;918;50.796;6.772;2023-03-30T04:13:20;7.50;;;3.97;;
1837;SDS011;918;50.796;6.772;2023-03-30T04:15:45;8.47;;;4.00;;
1837;SDS011;918;50.796;6.772;2023-03-30T04:18:10;6.17;;;4.10;;
1837;SDS011;918;50.796;6.772;2023-03-30T04:20:36;8.37;;;3.70;;
1837;SDS011;918;50.796;6.772;2023-03-30T04:23:01;4.83;;;2.93;;
1837;SDS011;918;50.796;6.772;2023-03-30T04:25:27;5.70;;;3.80;;
1837;SDS011;918;50.796;6.772;2023-03-30T04:27:53;5.93;;;3.40;;
1837;SDS011;918;50.796;6.772;2023-03-30T04:30:20;5.40;;;4.00;;
1837;SDS011;918;50.796;6.772;2023-03-30T04:32:46;8.47;;;3.90;;
1837;SDS011;918;50.796;6.772;2023-03-30T04:35:18;6.07;;;3.90;;
1837;SDS011;918;50.796;6.772;2023-03-30T04:37:43;4.03;;;3.47;;
1837;SDS011;918;50.796;6.772;2023-03-30T04:40:10;6.70;;;3.37;;
1837;SDS011;918;50.796;6.772;2023-03-30T04:42:37;4.40;;;2.90;;
1837;SDS011;918;50.796;6.772;2023-03-30T04:45:03;7.80;;;3.50;;
1837;SDS011;918;50.796;6.772;2023-03-30T04:47:29;4.93;;;3.33;;
1837;SDS011;918;50.796;6.772;2023-03-30T04:49:55;8.20;;;3.77;;
1837;SDS011;918;50.796;6.772;2023-03-30T04:52:20;3.50;;;3.13;;
1837;SDS011;918;50.796;6.772;2023-03-30T04:54:46;5.83;;;3.50;;
1837;SDS011;918;50.796;6.772;2023-03-30T04:57:11;5.93;;;3.97;;
1837;SDS011;918;50.796;6.772;2023-03-30T04:59:40;5.93;;;3.20;;
1837;SDS011;918;50.796;6.772;2023-03-30T05:02:06;7.00;;;3.63;;
1837;SDS011;918;50.796;6.772;2023-03-30T05:04:32;4.97;;;3.87;;
1837;SDS011;918;50.796;6.772;2023-03-30T05:06:58;6.37;;;3.33;;
1837;SDS011;918;50.796;6.772;2023-03-30T05:09:23;5.43;;;3.60;;
1837;SDS011;918;50.796;6.772;2023-03-30T05:11:49;4.73;;;3.73;;
1837;SDS011;918;50.796;6.772;2023-03-30T05:14:14;6.40;;;3.80;;
1837;SDS011;918;50.796;6.772;2023-03-30T05:16:40;10.40;;;4.20;;
1837;SDS011;918;50.796;6.772;2023-03-30T05:19:06;6.83;;;3.93;;
1837;SDS011;918;50.796;6.772;2023-03-30T05:21:31;5.90;;;3.63;;
1837;SDS011;918;50.796;6.772;2023-03-30T05:23:57;5.70;;;3.50;;
1837;SDS011;918;50.796;6.772;2023-03-30T05:26:22;10.07;;;4.03;;
1837;SDS011;918;50.796;6.772;2023-03-30T05:28:48;7.37;;;4.50;;
1837;SDS011;918;50.796;6.772;2023-03-30T05:31:13;7.50;;;4.90;;
1837;SDS011;918;50.796;6.772;2023-03-30T05:33:38;6.83;;;4.20;;
1837;SDS011;918;50.796;6.772;2023-03-30T05:36:04;7.17;;;4.63;;
1837;SDS011;918;50.796;6.772;2023-03-30T05:38:29;4.97;;;3.70;;
1837;SDS011;918;50.796;6.772;2023-03-30T05:40:55;5.60;;;4.43;;
1837;SDS011;918;50.796;6.772;2023-03-30T05:43:20;8.43;;;4.13;;
1837;SDS011;918;50.796;6.772;2023-03-30T05:45:46;6.53;;;3.30;;
1837;SDS011;918;50.796;6.772;2023-03-30T05:48:11;5.57;;;4.00;;
1837;SDS011;918;50.796;6.772;2023-03-30T05:50:36;8.97;;;4.30;;
1837;SDS011;918;50.796;6.772;2023-03-30T05:53:02;5.33;;;4.10;;
1837;SDS011;918;50.796;6.772;2023-03-30T05:55:27;6.00;;;3.80;;
1837;SDS011;918;50.796;6.772;2023-03-30T05:57:52;3.87;;;3.50;;
1837;SDS011;918;50.796;6.772;2023-03-30T06:00:18;6.90;;;4.37;;
1837;SDS011;918;50.796;6.772;2023-03-30T06:02:45;7.07;;;4.93;;
1837;SDS011;918;50.796;6.772;2023-03-30T06:05:10;5.40;;;4.13;;
1837;SDS011;918;50.796;6.772;2023-03-30T06:07:36;8.00;;;3.90;;
1837;SDS011;918;50.796;6.772;2023-03-30T06:10:01;5.87;;;4.20;;
1837;SDS011;918;50.796;6.772;2023-03-30T06:12:27;5.73;;;3.57;;
1837;SDS011;918;50.796;6.772;2023-03-30T06:14:52;4.67;;;3.53;;
1837;SDS011;918;50.796;6.772;2023-03-30T06:17:17;8.17;;;5.20;;
1837;SDS011;918;50.796;6.772;2023-03-30T06:19:43;8.13;;;4.13;;
1837;SDS011;918;50.796;6.772;2023-03-30T06:22:08;10.33;;;4.30;;
1837;SDS011;918;50.796;6.772;2023-03-30T06:24:33;7.40;;;4.17;;
1837;SDS011;918;50.796;6.772;2023-03-30T06:26:59;7.90;;;4.07;;
1837;SDS011;918;50.796;6.772;2023-03-30T06:29:25;4.70;;;4.10;;
1837;SDS011;918;50.796;6.772;2023-03-30T06:31:51;4.47;;;3.93;;
1837;SDS011;918;50.796;6.772;2023-03-30T06:34:16;7.57;;;4.33;;
1837;SDS011;918;50.796;6.772;2023-03-30T06:36:41;5.53;;;3.73;;
1837;SDS011;918;50.796;6.772;2023-03-30T06:39:08;5.20;;;4.60;;
1837;SDS011;918;50.796;6.772;2023-03-30T06:41:33;5.57;;;3.87;;
1837;SDS011;918;50.796;6.772;2023-03-30T06:43:58;4.23;;;3.33;;
1837;SDS011;918;50.796;6.772;2023-03-30T06:46:24;4.73;;;3.67;;
1837;SDS011;918;50.796;6.772;2023-03-30T06:48:49;4.27;;;3.00;;
1837;SDS011;918;50.796;6.772;2023-03-30T06:51:16;7.30;;;3.80;;
1837;SDS011;918;50.796;6.772;2023-03-30T06:53:41;4.90;;;3.57;;
1837;SDS011;918;50.796;6.772;2023-03-30T06:56:07;4.83;;;2.83;;
1837;SDS011;918;50.796;6.772;2023-03-30T06:58:32;5.87;;;3.07;;
1837;SDS011;918;50.796;6.772;2023-03-30T07:01:06;4.10;;;3.63;;
1837;SDS011;918;50.796;6.772;2023-03-30T07:03:34;6.77;;;3.50;;
1837;SDS011;918;50.796;6.772;2023-03-30T07:05:59;10.87;;;3.67;;
1837;SDS011;918;50.796;6.772;2023-03-30T07:08:24;4.10;;;2.87;;
1837;SDS011;918;50.796;6.772;2023-03-30T07:10:49;4.57;;;2.63;;
1837;SDS011;918;50.796;6.772;2023-03-30T07:13:15;3.60;;;2.70;;
1837;SDS011;918;50.796;6.772;2023-03-30T07:15:41;4.80;;;3.10;;
1837;SDS011;918;50.796;6.772;2023-03-30T07:18:07;5.60;;;3.00;;
1837;SDS011;918;50.796;6.772;2023-03-30T07:20:32;3.70;;;2.50;;
1837;SDS011;918;50.796;6.772;2023-03-30T07:22:57;4.10;;;3.10;;
1837;SDS011;918;50.796;6.772;2023-03-30T07:25:22;3.00;;;2.70;;
1837;SDS011;918;50.796;6.772;2023-03-30T07:27:48;3.20;;;2.80;;
1837;SDS011;918;50.796;6.772;2023-03-30T07:30:13;4.13;;;2.50;;
1837;SDS011;918;50.796;6.772;2023-03-30T07:32:39;4.10;;;2.67;;
1837;SDS011;918;50.796;6.772;2023-03-30T07:35:04;2.83;;;2.10;;
1837;SDS011;918;50.796;6.772;2023-03-30T07:37:30;5.47;;;2.80;;
1837;SDS011;918;50.796;6.772;2023-03-30T07:39:55;4.47;;;2.60;;
1837;SDS011;918;50.796;6.772;2023-03-30T07:42:21;5.67;;;2.30;;
1837;SDS011;918;50.796;6.772;2023-03-30T07:44:47;3.47;;;2.53;;
1837;SDS011;918;50.796;6.772;2023-03-30T07:47:12;3.90;;;2.63;;
1837;SDS011;918;50.796;6.772;2023-03-30T07:49:37;4.13;;;1.60;;
1837;SDS011;918;50.796;6.772;2023-03-30T07:52:02;3.67;;;2.23;;
1837;SDS011;918;50.796;6.772;2023-03-30T07:54:28;2.63;;;2.00;;
1837;SDS011;918;50.796;6.772;2023-03-30T07:56:53;4.50;;;1.43;;
1837;SDS011;918;50.796;6.772;2023-03-30T07:59:18;3.30;;;2.13;;
1837;SDS011;918;50.796;6.772;2023-03-30T08:01:44;2.73;;;2.00;;
1837;SDS011;918;50.796;6.772;2023-03-30T08:04:10;2.20;;;1.30;;
1837;SDS011;918;50.796;6.772;2023-03-30T08:06:36;1.67;;;1.47;;
1837;SDS011;918;50.796;6.772;2023-03-30T08:09:02;3.10;;;1.43;;
1837;SDS011;918;50.796;6.772;2023-03-30T08:11:28;2.80;;;1.80;;
1837;SDS011;918;50.796;6.772;2023-03-30T08:13:54;3.77;;;1.80;;
1837;SDS011;918;50.796;6.772;2023-03-30T08:16:19;3.03;;;1.80;;
1837;SDS011;918;50.796;6.772;2023-03-30T08:18:44;4.93;;;1.50;;
1837;SDS011;918;50.796;6.772;2023-03-30T08:21:11;3.90;;;1.80;;
1837;SDS011;918;50.796;6.772;2023-03-30T08:23:36;1.83;;;1.63;;
1837;SDS011;918;50.796;6.772;2023-03-30T08:26:01;2.83;;;1.70;;
1837;SDS011;918;50.796;6.772;2023-03-30T08:28:27;3.23;;;1.70;;
1837;SDS011;918;50.796;6.772;2023-03-30T08:30:52;2.10;;;1.43;;
1837;SDS011;918;50.796;6.772;2023-03-30T08:33:18;3.67;;;1.63;;
1837;SDS011;918;50.796;6.772;2023-03-30T08:35:44;2.17;;;1.60;;
1837;SDS011;918;50.796;6.772;2023-03-30T08:38:10;5.27;;;2.93;;
1837;SDS011;918;50.796;6.772;2023-03-30T08:40:41;3.87;;;2.00;;
1837;SDS011;918;50.796;6.772;2023-03-30T08:45:49;1.47;;;1.30;;
1837;SDS011;918;50.796;6.772;2023-03-30T08:48:16;4.00;;;1.43;;
1837;SDS011;918;50.796;6.772;2023-03-30T08:50:56;3.50;;;2.60;;
1837;SDS011;918;50.796;6.772;2023-03-30T08:53:21;2.30;;;2.10;;
1837;SDS011;918;50.796;6.772;2023-03-30T08:55:51;4.40;;;1.53;;
1837;SDS011;918;50.796;6.772;2023-03-30T09:01:22;5.93;;;2.10;;
1837;SDS011;918;50.796;6.772;2023-03-30T09:03:57;2.50;;;1.90;;
1837;SDS011;918;50.796;6.772;2023-03-30T09:06:29;5.07;;;2.20;;
1837;SDS011;918;50.796;6.772;2023-03-30T09:09:04;6.23;;;2.47;;
1837;SDS011;918;50.796;6.772;2023-03-30T09:11:31;3.37;;;1.90;;
1837;SDS011;918;50.796;6.772;2023-03-30T09:13:59;3.40;;;1.90;;
1837;SDS011;918;50.796;6.772;2023-03-30T09:19:01;2.97;;;1.90;;
1837;SDS011;918;50.796;6.772;2023-03-30T09:21:28;3.50;;;1.70;;
1837;SDS011;918;50.796;6.772;2023-03-30T09:23:56;5.80;;;1.60;;
1837;SDS011;918;50.796;6.772;2023-03-30T09:29:09;4.87;;;2.00;;
1837;SDS011;918;50.796;6.772;2023-03-30T09:31:40;3.17;;;1.50;;
1837;SDS011;918;50.796;6.772;2023-03-30T09:34:20;2.80;;;1.23;;
1837;SDS011;918;50.796;6.772;2023-03-30T09:39:18;6.00;;;2.17;;
1837;SDS011;918;50.796;6.772;2023-03-30T09:41:52;1.30;;;1.00;;
1837;SDS011;918;50.796;6.772;2023-03-30T09:47:04;4.33;;;1.47;;
1837;SDS011;918;50.796;6.772;2023-03-30T09:49:39;1.53;;;1.07;;
1837;SDS011;918;50.796;6.772;2023-03-30T09:52:05;3.90;;;1.20;;
1837;SDS011;918;50.796;6.772;2023-03-30T09:54:38;2.60;;;1.50;;
1837;SDS011;918;50.796;6.772;2023-03-30T09:57:04;1.77;;;0.93;;
1837;SDS011;918;50.796;6.772;2023-03-30T10:07:21;4.17;;;1.43;;
1837;SDS011;918;50.796;6.772;2023-03-30T10:09:47;1.43;;;1.33;;
1837;SDS011;918;50.796;6.772;2023-03-30T10:12:13;1.23;;;0.70;;
1837;SDS011;918;50.796;6.772;2023-03-30T10:14:39;1.40;;;1.10;;
1837;SDS011;918;50.796;6.772;2023-03-30T10:17:04;2.03;;;1.43;;
1837;SDS011;918;50.796;6.772;2023-03-30T10:19:32;2.00;;;1.20;;
1837;SDS011;918;50.796;6.772;2023-03-30T10:21:59;1.23;;;0.80;;
1837;SDS011;918;50.796;6.772;2023-03-30T10:24:28;1.70;;;0.70;;
1837;SDS011;918;50.796;6.772;2023-03-30T10:27:16;1.07;;;0.97;;
1837;SDS011;918;50.796;6.772;2023-03-30T10:29:44;2.80;;;1.73;;
1837;SDS011;918;50.796;6.772;2023-03-30T10:32:13;1.63;;;1.53;;
1837;SDS011;918;50.796;6.772;2023-03-30T10:34:41;1.80;;;1.53;;
1837;SDS011;918;50.796;6.772;2023-03-30T10:37:25;1.03;;;1.00;;
1837;SDS011;918;50.796;6.772;2023-03-30T10:40:00;1.87;;;0.87;;
1837;SDS011;918;50.796;6.772;2023-03-30T10:42:29;1.60;;;1.00;;
1837;SDS011;918;50.796;6.772;2023-03-30T10:44:57;1.30;;;0.90;;
1837;SDS011;918;50.796;6.772;2023-03-30T10:47:34;0.90;;;0.90;;
1837;SDS011;918;50.796;6.772;2023-03-30T10:55:51;3.47;;;1.40;;
1837;SDS011;918;50.796;6.772;2023-03-30T10:58:37;1.70;;;0.93;;
1837;SDS011;918;50.796;6.772;2023-03-30T11:01:19;1.83;;;1.20;;
1837;SDS011;918;50.796;6.772;2023-03-30T11:03:53;0.80;;;0.80;;
1837;SDS011;918;50.796;6.772;2023-03-30T11:06:26;3.27;;;1.20;;
1837;SDS011;918;50.796;6.772;2023-03-30T11:08:55;8.63;;;3.00;;
1837;SDS011;918;50.796;6.772;2023-03-30T11:11:36;4.60;;;2.17;;
1837;SDS011;918;50.796;6.772;2023-03-30T11:14:10;2.47;;;1.30;;
1837;SDS011;918;50.796;6.772;2023-03-30T11:16:52;1.50;;;1.40;;
1837;SDS011;918;50.796;6.772;2023-03-30T11:19:32;2.73;;;1.60;;
1837;SDS011;918;50.796;6.772;2023-03-30T11:22:19;2.87;;;1.17;;
1837;SDS011;918;50.796;6.772;2023-03-30T11:24:52;2.80;;;1.10;;
1837;SDS011;918;50.796;6.772;2023-03-30T11:30:18;4.50;;;1.17;;
1837;SDS011;918;50.796;6.772;2023-03-30T11:32:56;1.57;;;0.90;;
1837;SDS011;918;50.796;6.772;2023-03-30T11:38:08;2.57;;;1.17;;
1837;SDS011;918;50.796;6.772;2023-03-30T11:40:41;2.67;;;1.10;;
1837;SDS011;918;50.796;6.772;2023-03-30T11:43:11;3.43;;;1.03;;
1837;SDS011;918;50.796;6.772;2023-03-30T11:53:37;0.50;;;0.50;;
1837;SDS011;918;50.796;6.772;2023-03-30T11:56:21;0.97;;;0.77;;
1837;SDS011;918;50.796;6.772;2023-03-30T11:59:02;2.30;;;0.90;;
1837;SDS011;918;50.796;6.772;2023-03-30T12:04:48;2.50;;;1.40;;
1837;SDS011;918;50.796;6.772;2023-03-30T12:07:43;2.43;;;0.73;;
1837;SDS011;918;50.796;6.772;2023-03-30T12:12:58;1.33;;;1.10;;
1837;SDS011;918;50.796;6.772;2023-03-30T12:28:44;3.13;;;1.20;;
1837;SDS011;918;50.796;6.772;2023-03-30T12:31:12;3.83;;;1.57;;
1837;SDS011;918;50.796;6.772;2023-03-30T12:33:50;3.47;;;1.80;;
1837;SDS011;918;50.796;6.772;2023-03-30T12:36:24;4.67;;;2.00;;
1837;SDS011;918;50.796;6.772;2023-03-30T12:38:55;3.57;;;1.23;;
1837;SDS011;918;50.796;6.772;2023-03-30T12:41:22;5.00;;;1.80;;
1837;SDS011;918;50.796;6.772;2023-03-30T12:49:51;4.80;;;2.10;;
1837;SDS011;918;50.796;6.772;2023-03-30T12:58:21;3.53;;;1.83;;
1837;SDS011;918;50.796;6.772;2023-03-30T13:04:03;2.50;;;1.60;;
1837;SDS011;918;50.796;6.772;2023-03-30T13:06:50;3.43;;;1.57;;
1837;SDS011;918;50.796;6.772;2023-03-30T13:09:27;3.83;;;1.40;;
1837;SDS011;918;50.796;6.772;2023-03-30T13:22:16;4.13;;;1.67;;
1837;SDS011;918;50.796;6.772;2023-03-30T13:24:54;1.50;;;0.87;;
1837;SDS011;918;50.796;6.772;2023-03-30T13:35:27;2.20;;;1.20;;
1837;SDS011;918;50.796;6.772;2023-03-30T13:38:39;3.43;;;1.50;;
1837;SDS011;918;50.796;6.772;2023-03-30T13:43:27;1.47;;;1.20;;
1837;SDS011;918;50.796;6.772;2023-03-30T13:48:58;3.00;;;1.60;;
1837;SDS011;918;50.796;6.772;2023-03-30T13:51:46;1.80;;;1.40;;
1837;SDS011;918;50.796;6.772;2023-03-30T13:54:13;2.40;;;1.17;;
1837;SDS011;918;50.796;6.772;2023-03-30T13:56:43;2.70;;;1.53;;
1837;SDS011;918;50.796;6.772;2023-03-30T13:59:12;2.60;;;1.30;;
1837;SDS011;918;50.796;6.772;2023-03-30T14:01:39;4.00;;;1.57;;
1837;SDS011;918;50.796;6.772;2023-03-30T14:04:08;5.03;;;1.77;;
1837;SDS011;918;50.796;6.772;2023-03-30T14:06:36;3.70;;;1.50;;
1837;SDS011;918;50.796;6.772;2023-03-30T14:09:09;2.60;;;1.60;;
1837;SDS011;918;50.796;6.772;2023-03-30T14:11:54;3.60;;;1.40;;
1837;SDS011;918;50.796;6.772;2023-03-30T14:14:24;4.10;;;1.83;;
1837;SDS011;918;50.796;6.772;2023-03-30T14:16:56;6.40;;;1.97;;
1837;SDS011;918;50.796;6.772;2023-03-30T14:19:25;3.57;;;2.20;;
1837;SDS011;918;50.796;6.772;2023-03-30T14:22:11;2.30;;;1.90;;
1837;SDS011;918;50.796;6.772;2023-03-30T14:24:47;4.80;;;1.90;;
1837;SDS011;918;50.796;6.772;2023-03-30T14:27:20;5.00;;;1.60;;
1837;SDS011;918;50.796;6.772;2023-03-30T14:29:47;6.27;;;1.87;;
1837;SDS011;918;50.796;6.772;2023-03-30T14:32:14;3.30;;;1.97;;
1837;SDS011;918;50.796;6.772;2023-03-30T14:34:44;2.57;;;1.70;;
1837;SDS011;918;50.796;6.772;2023-03-30T14:37:11;5.53;;;2.13;;
1837;SDS011;918;50.796;6.772;2023-03-30T14:39:38;3.50;;;1.93;;
1837;SDS011;918;50.796;6.772;2023-03-30T14:42:08;5.63;;;2.03;;
1837;SDS011;918;50.796;6.772;2023-03-30T14:44:38;2.00;;;1.70;;
1837;SDS011;918;50.796;6.772;2023-03-30T14:47:04;5.70;;;1.97;;
1837;SDS011;918;50.796;6.772;2023-03-30T14:49:30;3.73;;;2.30;;
1837;SDS011;918;50.796;6.772;2023-03-30T14:52:15;4.10;;;1.73;;
1837;SDS011;918;50.796;6.772;2023-03-30T14:54:41;3.17;;;1.60;;
1837;SDS011;918;50.796;6.772;2023-03-30T14:57:09;2.40;;;1.70;;
1837;SDS011;918;50.796;6.772;2023-03-30T14:59:37;2.47;;;1.27;;
1837;SDS011;918;50.796;6.772;2023-03-30T15:02:17;4.50;;;1.60;;
1837;SDS011;918;50.796;6.772;2023-03-30T15:04:48;2.47;;;1.57;;
1837;SDS011;918;50.796;6.772;2023-03-30T15:07:14;1.83;;;0.80;;
1837;SDS011;918;50.796;6.772;2023-03-30T15:09:40;2.17;;;1.27;;
1837;SDS011;918;50.796;6.772;2023-03-30T15:12:10;2.57;;;1.13;;
1837;SDS011;918;50.796;6.772;2023-03-30T15:14:42;2.37;;;1.13;;
1837;SDS011;918;50.796;6.772;2023-03-30T15:17:09;1.80;;;1.00;;
1837;SDS011;918;50.796;6.772;2023-03-30T15:19:37;1.87;;;0.80;;
1837;SDS011;918;50.796;6.772;2023-03-30T15:22:08;3.03;;;1.20;;
1837;SDS011;918;50.796;6.772;2023-03-30T15:24:37;2.07;;;0.90;;
1837;SDS011;918;50.796;6.772;2023-03-30T15:27:04;2.60;;;1.00;;
1837;SDS011;918;50.796;6.772;2023-03-30T15:29:31;2.80;;;1.30;;
1837;SDS011;918;50.796;6.772;2023-03-30T15:31:57;1.10;;;1.00;;
1837;SDS011;918;50.796;6.772;2023-03-30T15:34:36;1.37;;;1.07;;
1837;SDS011;918;50.796;6.772;2023-03-30T15:37:01;2.73;;;1.00;;
1837;SDS011;918;50.796;6.772;2023-03-30T15:39:28;2.33;;;1.00;;
1837;SDS011;918;50.796;6.772;2023-03-30T15:42:04;3.77;;;1.50;;
1837;SDS011;918;50.796;6.772;2023-03-30T15:44:34;4.00;;;0.90;;
1837;SDS011;918;50.796;6.772;2023-03-30T15:47:01;2.70;;;1.43;;
1837;SDS011;918;50.796;6.772;2023-03-30T15:49:28;3.33;;;1.20;;
1837;SDS011;918;50.796;6.772;2023-03-30T15:52:00;2.93;;;1.50;;
1837;SDS011;918;50.796;6.772;2023-03-30T15:54:31;2.53;;;1.20;;
1837;SDS011;918;50.796;6.772;2023-03-30T15:57:05;1.50;;;1.40;;
1837;SDS011;918;50.796;6.772;2023-03-30T15:59:45;3.03;;;1.40;;
1837;SDS011;918;50.796;6.772;2023-03-30T16:02:14;3.20;;;1.67;;
1837;SDS011;918;50.796;6.772;2023-03-30T16:04:41;3.93;;;1.30;;
1837;SDS011;918;50.796;6.772;2023-03-30T16:07:14;3.47;;;1.43;;
1837;SDS011;918;50.796;6.772;2023-03-30T16:09:44;1.27;;;1.07;;
1837;SDS011;918;50.796;6.772;2023-03-30T16:12:11;4.80;;;1.43;;
1837;SDS011;918;50.796;6.772;2023-03-30T16:14:38;4.50;;;1.30;;
1837;SDS011;918;50.796;6.772;2023-03-30T16:17:03;5.00;;;1.57;;
1837;SDS011;918;50.796;6.772;2023-03-30T16:19:29;5.90;;;2.13;;
1837;SDS011;918;50.796;6.772;2023-03-30T16:21:54;3.77;;;1.70;;
1837;SDS011;918;50.796;6.772;2023-03-30T16:24:19;4.40;;;1.80;;
1837;SDS011;918;50.796;6.772;2023-03-30T16:26:45;3.73;;;1.80;;
1837;SDS011;918;50.796;6.772;2023-03-30T16:29:17;3.30;;;1.30;;
1837;SDS011;918;50.796;6.772;2023-03-30T16:31:45;2.70;;;1.30;;
1837;SDS011;918;50.796;6.772;2023-03-30T16:34:11;1.47;;;1.00;;
1837;SDS011;918;50.796;6.772;2023-03-30T16:36:36;2.40;;;1.17;;
1837;SDS011;918;50.796;6.772;2023-03-30T16:39:02;1.93;;;1.50;;
1837;SDS011;918;50.796;6.772;2023-03-30T16:41:29;3.03;;;1.20;;
1837;SDS011;918;50.796;6.772;2023-03-30T16:43:55;2.70;;;1.13;;
1837;SDS011;918;50.796;6.772;2023-03-30T16:46:20;1.97;;;1.03;;
1837;SDS011;918;50.796;6.772;2023-03-30T16:48:46;2.57;;;1.20;;
1837;SDS011;918;50.796;6.772;2023-03-30T16:51:12;3.40;;;1.13;;
1837;SDS011;918;50.796;6.772;2023-03-30T16:53:38;2.80;;;1.20;;
1837;SDS011;918;50.796;6.772;2023-03-30T16:56:04;3.30;;;1.37;;
1837;SDS011;918;50.796;6.772;2023-03-30T16:58:30;1.80;;;1.37;;
1837;SDS011;918;50.796;6.772;2023-03-30T17:00:55;2.93;;;1.00;;
1837;SDS011;918;50.796;6.772;2023-03-30T17:03:26;1.87;;;1.10;;
1837;SDS011;918;50.796;6.772;2023-03-30T17:05:53;2.30;;;1.07;;
1837;SDS011;918;50.796;6.772;2023-03-30T17:10:44;1.30;;;0.97;;
1837;SDS011;918;50.796;6.772;2023-03-30T17:13:09;1.63;;;1.10;;
1837;SDS011;918;50.796;6.772;2023-03-30T17:15:34;1.07;;;0.87;;
1837;SDS011;918;50.796;6.772;2023-03-30T17:18:08;2.77;;;1.63;;
1837;SDS011;918;50.796;6.772;2023-03-30T17:20:38;2.13;;;1.20;;
1837;SDS011;918;50.796;6.772;2023-03-30T17:23:09;2.80;;;1.43;;
1837;SDS011;918;50.796;6.772;2023-03-30T17:25:34;2.50;;;1.10;;
1837;SDS011;918;50.796;6.772;2023-03-30T17:28:04;5.97;;;1.33;;
1837;SDS011;918;50.796;6.772;2023-03-30T17:30:33;2.50;;;1.10;;
1837;SDS011;918;50.796;6.772;2023-03-30T17:33:00;2.50;;;1.50;;
1837;SDS011;918;50.796;6.772;2023-03-30T17:35:26;1.47;;;1.07;;
1837;SDS011;918;50.796;6.772;2023-03-30T17:37:51;2.67;;;1.50;;
1837;SDS011;918;50.796;6.772;2023-03-30T17:40:18;3.43;;;1.40;;
1837;SDS011;918;50.796;6.772;2023-03-30T17:42:51;1.83;;;1.40;;
1837;SDS011;918;50.796;6.772;2023-03-30T17:45:17;2.90;;;1.47;;
1837;SDS011;918;50.796;6.772;2023-03-30T17:47:44;3.67;;;1.53;;
1837;SDS011;918;50.796;6.772;2023-03-30T17:50:17;3.57;;;1.77;;
1837;SDS011;918;50.796;6.772;2023-03-30T17:52:46;1.90;;;1.03;;